sensor_id;sensor_type;location;lat;lon;timestamp;pressure;altitude;pressure_sealevel;temperature;humidity
27840;BME280;15207;42.182;24.308;2023-03-14T00:00:14;99718.06;;;1.18;72.38
27840;BME280;15207;42.182;24.308;2023-03-14T00:02:40;99718.88;;;0.94;73.29
27840;BME280;15207;42.182;24.308;2023-03-14T00:05:06;99716.09;;;0.70;73.88
27840;BME280;15207;42.182;24.308;2023-03-14T00:07:34;99710.81;;;0.43;75.46
27840;BME280;15207;42.182;24.308;2023-03-14T00:10:02;99705.28;;;0.22;76.80
27840;BME280;15207;42.182;24.308;2023-03-14T00:12:29;99697.44;;;0.19;77.24
27840;BME280;15207;42.182;24.308;2023-03-14T00:14:55;99699.81;;;0.28;76.54
27840;BME280;15207;42.182;24.308;2023-03-14T00:17:20;99695.94;;;0.40;76.37
27840;BME280;15207;42.182;24.308;2023-03-14T00:19:46;99696.81;;;0.41;76.22
27840;BME280;15207;42.182;24.308;2023-03-14T00:22:11;99684.41;;;0.44;75.01
27840;BME280;15207;42.182;24.308;2023-03-14T00:24:37;99692.25;;;0.46;75.75
27840;BME280;15207;42.182;24.308;2023-03-14T00:27:02;99689.03;;;0.36;75.99
27840;BME280;15207;42.182;24.308;2023-03-14T00:29:28;99675.13;;;0.31;77.33
27840;BME280;15207;42.182;24.308;2023-03-14T00:31:54;99667.91;;;0.37;78.12
27840;BME280;15207;42.182;24.308;2023-03-14T00:34:19;99667.50;;;0.50;78.41
27840;BME280;15207;42.182;24.308;2023-03-14T00:36:45;99658.03;;;0.44;76.37
27840;BME280;15207;42.182;24.308;2023-03-14T00:39:10;99651.59;;;0.53;76.88
27840;BME280;15207;42.182;24.308;2023-03-14T00:41:36;99649.56;;;0.63;76.84
27840;BME280;15207;42.182;24.308;2023-03-14T00:44:01;99643.19;;;0.69;77.24
27840;BME280;15207;42.182;24.308;2023-03-14T00:46:27;99636.69;;;0.79;76.92
27840;BME280;15207;42.182;24.308;2023-03-14T00:48:52;99635.19;;;0.72;75.73
27840;BME280;15207;42.182;24.308;2023-03-14T00:51:18;99635.91;;;0.77;76.03
27840;BME280;15207;42.182;24.308;2023-03-14T00:53:44;99631.31;;;0.55;73.17
27840;BME280;15207;42.182;24.308;2023-03-14T00:56:12;99621.25;;;0.12;74.22
27840;BME280;15207;42.182;24.308;2023-03-14T00:58:38;99613.03;;;-0.07;75.67
27840;BME280;15207;42.182;24.308;2023-03-14T01:01:13;99623.59;;;-0.07;76.02
27840;BME280;15207;42.182;24.308;2023-03-14T01:03:39;99610.66;;;-0.15;79.71
27840;BME280;15207;42.182;24.308;2023-03-14T01:06:11;99621.56;;;0.02;82.59
27840;BME280;15207;42.182;24.308;2023-03-14T01:08:37;99622.69;;;0.23;83.13
27840;BME280;15207;42.182;24.308;2023-03-14T01:11:10;99623.34;;;0.30;82.06
27840;BME280;15207;42.182;24.308;2023-03-14T01:13:36;99621.22;;;0.41;80.75
27840;BME280;15207;42.182;24.308;2023-03-14T01:16:03;99610.44;;;0.49;79.58
27840;BME280;15207;42.182;24.308;2023-03-14T01:18:31;99607.50;;;0.58;79.10
27840;BME280;15207;42.182;24.308;2023-03-14T01:20:56;99600.97;;;0.70;78.58
27840;BME280;15207;42.182;24.308;2023-03-14T01:23:22;99595.91;;;0.64;77.24
27840;BME280;15207;42.182;24.308;2023-03-14T01:25:48;99605.56;;;0.63;77.47
27840;BME280;15207;42.182;24.308;2023-03-14T01:28:13;99601.06;;;0.67;77.30
27840;BME280;15207;42.182;24.308;2023-03-14T01:30:39;99605.31;;;0.71;76.64
27840;BME280;15207;42.182;24.308;2023-03-14T01:33:05;99602.69;;;0.71;76.61
27840;BME280;15207;42.182;24.308;2023-03-14T01:35:30;99608.56;;;0.79;75.85
27840;BME280;15207;42.182;24.308;2023-03-14T01:37:56;99604.22;;;0.78;75.11
27840;BME280;15207;42.182;24.308;2023-03-14T01:40:21;99599.94;;;0.74;74.95
27840;BME280;15207;42.182;24.308;2023-03-14T01:42:57;99596.88;;;0.61;75.40
27840;BME280;15207;42.182;24.308;2023-03-14T01:48:28;99591.72;;;0.57;75.50
27840;BME280;15207;42.182;24.308;2023-03-14T01:50:57;99589.06;;;0.58;75.55
27840;BME280;15207;42.182;24.308;2023-03-14T01:53:24;99585.66;;;0.55;75.11
27840;BME280;15207;42.182;24.308;2023-03-14T01:55:52;99577.59;;;0.59;74.61
27840;BME280;15207;42.182;24.308;2023-03-14T01:58:18;99579.88;;;0.70;75.00
27840;BME280;15207;42.182;24.308;2023-03-14T02:00:45;99574.81;;;0.64;75.38
27840;BME280;15207;42.182;24.308;2023-03-14T02:03:14;99571.47;;;0.59;75.19
27840;BME280;15207;42.182;24.308;2023-03-14T02:05:40;99577.78;;;0.53;74.32
27840;BME280;15207;42.182;24.308;2023-03-14T02:08:26;99567.06;;;0.32;74.61
27840;BME280;15207;42.182;24.308;2023-03-14T02:10:53;99565.41;;;0.28;75.46
27840;BME280;15207;42.182;24.308;2023-03-14T02:13:19;99571.34;;;0.08;76.26
27840;BME280;15207;42.182;24.308;2023-03-14T02:15:47;99561.53;;;0.13;76.51
27840;BME280;15207;42.182;24.308;2023-03-14T02:18:13;99576.00;;;0.26;75.66
27840;BME280;15207;42.182;24.308;2023-03-14T02:21:00;99575.75;;;0.07;74.68
27840;BME280;15207;42.182;24.308;2023-03-14T02:26:01;99575.25;;;-0.06;76.17
27840;BME280;15207;42.182;24.308;2023-03-14T02:28:31;99580.53;;;-0.36;76.38
27840;BME280;15207;42.182;24.308;2023-03-14T02:30:56;99582.88;;;-0.55;77.04
27840;BME280;15207;42.182;24.308;2023-03-14T02:33:22;99582.53;;;-0.76;77.76
27840;BME280;15207;42.182;24.308;2023-03-14T02:35:59;99590.59;;;-0.50;79.12
27840;BME280;15207;42.182;24.308;2023-03-14T02:41:17;99590.09;;;-0.63;80.53
27840;BME280;15207;42.182;24.308;2023-03-14T02:43:42;99586.75;;;-0.38;80.21
27840;BME280;15207;42.182;24.308;2023-03-14T02:46:10;99587.94;;;-0.19;79.85
27840;BME280;15207;42.182;24.308;2023-03-14T02:48:45;99586.84;;;-0.11;79.13
27840;BME280;15207;42.182;24.308;2023-03-14T02:51:13;99592.81;;;-0.06;78.96
27840;BME280;15207;42.182;24.308;2023-03-14T02:53:39;99587.31;;;0.02;78.53
27840;BME280;15207;42.182;24.308;2023-03-14T02:56:07;99577.97;;;-0.09;78.66
27840;BME280;15207;42.182;24.308;2023-03-14T02:58:33;99577.78;;;-0.03;78.80
27840;BME280;15207;42.182;24.308;2023-03-14T03:00:58;99572.09;;;0.11;78.51
27840;BME280;15207;42.182;24.308;2023-03-14T03:03:24;99573.56;;;0.20;77.38
27840;BME280;15207;42.182;24.308;2023-03-14T03:05:50;99576.22;;;0.20;77.67
27840;BME280;15207;42.182;24.308;2023-03-14T03:08:16;99577.63;;;0.31;77.69
27840;BME280;15207;42.182;24.308;2023-03-14T03:10:42;99577.97;;;0.20;77.23
27840;BME280;15207;42.182;24.308;2023-03-14T03:13:07;99579.25;;;0.08;76.70
27840;BME280;15207;42.182;24.308;2023-03-14T03:15:33;99577.41;;;-0.19;77.55
27840;BME280;15207;42.182;24.308;2023-03-14T03:17:59;99575.09;;;-0.30;77.12
27840;BME280;15207;42.182;24.308;2023-03-14T03:20:24;99578.41;;;-0.23;78.27
27840;BME280;15207;42.182;24.308;2023-03-14T03:22:50;99581.06;;;-0.24;79.38
27840;BME280;15207;42.182;24.308;2023-03-14T03:25:16;99576.34;;;-0.13;79.60
27840;BME280;15207;42.182;24.308;2023-03-14T03:27:41;99579.34;;;0.05;79.26
27840;BME280;15207;42.182;24.308;2023-03-14T03:30:08;99574.22;;;0.00;78.92
27840;BME280;15207;42.182;24.308;2023-03-14T03:32:33;99567.88;;;0.06;78.21
27840;BME280;15207;42.182;24.308;2023-03-14T03:34:59;99559.44;;;0.23;77.73
27840;BME280;15207;42.182;24.308;2023-03-14T03:37:24;99550.28;;;0.35;77.07
27840;BME280;15207;42.182;24.308;2023-03-14T03:39:51;99548.97;;;0.48;76.90
27840;BME280;15207;42.182;24.308;2023-03-14T03:42:17;99556.09;;;0.45;75.63
27840;BME280;15207;42.182;24.308;2023-03-14T03:44:43;99547.84;;;0.29;75.68
27840;BME280;15207;42.182;24.308;2023-03-14T03:47:08;99546.59;;;0.12;75.65
27840;BME280;15207;42.182;24.308;2023-03-14T03:49:34;99547.47;;;0.12;74.86
27840;BME280;15207;42.182;24.308;2023-03-14T03:52:00;99546.03;;;0.02;74.94
27840;BME280;15207;42.182;24.308;2023-03-14T03:54:25;99546.28;;;-0.06;76.14
27840;BME280;15207;42.182;24.308;2023-03-14T03:56:51;99552.28;;;-0.29;76.38
27840;BME280;15207;42.182;24.308;2023-03-14T03:59:18;99548.50;;;-0.50;76.94
27840;BME280;15207;42.182;24.308;2023-03-14T04:01:43;99555.75;;;-0.59;77.49
27840;BME280;15207;42.182;24.308;2023-03-14T04:04:09;99551.13;;;-0.50;78.07
27840;BME280;15207;42.182;24.308;2023-03-14T04:06:34;99555.03;;;-0.34;77.82
27840;BME280;15207;42.182;24.308;2023-03-14T04:09:00;99549.88;;;-0.37;78.42
27840;BME280;15207;42.182;24.308;2023-03-14T04:11:26;99545.56;;;-0.11;77.68
27840;BME280;15207;42.182;24.308;2023-03-14T04:13:51;99547.00;;;-0.29;76.51
27840;BME280;15207;42.182;24.308;2023-03-14T04:16:20;99542.59;;;-0.59;76.83
27840;BME280;15207;42.182;24.308;2023-03-14T04:18:47;99556.00;;;-0.68;77.01
27840;BME280;15207;42.182;24.308;2023-03-14T04:21:12;99548.53;;;-0.82;80.36
27840;BME280;15207;42.182;24.308;2023-03-14T04:23:38;99545.19;;;-0.89;82.55
27840;BME280;15207;42.182;24.308;2023-03-14T04:26:04;99540.59;;;-0.81;83.21
27840;BME280;15207;42.182;24.308;2023-03-14T04:28:29;99538.25;;;-0.60;83.82
27840;BME280;15207;42.182;24.308;2023-03-14T04:30:55;99543.53;;;-0.61;82.50
27840;BME280;15207;42.182;24.308;2023-03-14T04:33:20;99551.31;;;-0.88;82.65
27840;BME280;15207;42.182;24.308;2023-03-14T04:35:46;99546.00;;;-0.85;82.59
27840;BME280;15207;42.182;24.308;2023-03-14T04:38:12;99544.69;;;-0.70;82.86
27840;BME280;15207;42.182;24.308;2023-03-14T04:40:41;99549.75;;;-0.64;82.76
27840;BME280;15207;42.182;24.308;2023-03-14T04:43:11;99548.66;;;-0.55;81.34
27840;BME280;15207;42.182;24.308;2023-03-14T04:45:37;99558.41;;;-0.60;80.58
27840;BME280;15207;42.182;24.308;2023-03-14T04:48:03;99549.00;;;-0.37;79.24
27840;BME280;15207;42.182;24.308;2023-03-14T04:50:28;99558.31;;;-0.56;78.78
27840;BME280;15207;42.182;24.308;2023-03-14T04:52:54;99554.19;;;-0.34;77.89
27840;BME280;15207;42.182;24.308;2023-03-14T04:55:19;99555.75;;;-0.29;77.76
27840;BME280;15207;42.182;24.308;2023-03-14T04:57:45;99560.75;;;-0.19;77.71
27840;BME280;15207;42.182;24.308;2023-03-14T05:00:11;99564.50;;;0.02;76.29
27840;BME280;15207;42.182;24.308;2023-03-14T05:02:37;99562.81;;;-0.29;76.53
27840;BME280;15207;42.182;24.308;2023-03-14T05:05:03;99570.13;;;-0.10;76.62
27840;BME280;15207;42.182;24.308;2023-03-14T05:07:28;99568.19;;;-0.05;76.35
27840;BME280;15207;42.182;24.308;2023-03-14T05:09:54;99569.50;;;-0.19;75.99
27840;BME280;15207;42.182;24.308;2023-03-14T05:12:20;99574.72;;;-0.17;77.12
27840;BME280;15207;42.182;24.308;2023-03-14T05:14:46;99565.69;;;-0.08;77.92
27840;BME280;15207;42.182;24.308;2023-03-14T05:17:12;99571.91;;;-0.11;77.97
27840;BME280;15207;42.182;24.308;2023-03-14T05:19:42;99573.34;;;-0.01;78.32
27840;BME280;15207;42.182;24.308;2023-03-14T05:22:07;99573.72;;;0.16;78.33
27840;BME280;15207;42.182;24.308;2023-03-14T05:24:33;99572.63;;;0.23;78.04
27840;BME280;15207;42.182;24.308;2023-03-14T05:26:58;99579.06;;;0.41;77.18
27840;BME280;15207;42.182;24.308;2023-03-14T05:29:24;99582.19;;;0.52;76.56
27840;BME280;15207;42.182;24.308;2023-03-14T05:31:49;99576.72;;;0.86;76.32
27840;BME280;15207;42.182;24.308;2023-03-14T05:34:15;99572.03;;;0.94;75.59
27840;BME280;15207;42.182;24.308;2023-03-14T05:36:41;99566.22;;;1.10;74.81
27840;BME280;15207;42.182;24.308;2023-03-14T05:39:06;99566.31;;;1.32;74.24
27840;BME280;15207;42.182;24.308;2023-03-14T05:41:32;99556.25;;;1.42;73.06
27840;BME280;15207;42.182;24.308;2023-03-14T05:43:57;99563.81;;;1.75;73.08
27840;BME280;15207;42.182;24.308;2023-03-14T05:46:23;99567.78;;;1.87;71.10
27840;BME280;15207;42.182;24.308;2023-03-14T05:48:48;99557.44;;;2.03;71.06
27840;BME280;15207;42.182;24.308;2023-03-14T05:51:14;99557.56;;;2.45;69.73
27840;BME280;15207;42.182;24.308;2023-03-14T05:53:40;99549.59;;;2.67;68.39
27840;BME280;15207;42.182;24.308;2023-03-14T05:56:05;99552.34;;;3.06;66.40
27840;BME280;15207;42.182;24.308;2023-03-14T05:58:31;99554.16;;;3.05;65.56
27840;BME280;15207;42.182;24.308;2023-03-14T06:00:56;99555.72;;;3.30;64.80
27840;BME280;15207;42.182;24.308;2023-03-14T06:03:22;99558.50;;;3.27;63.60
27840;BME280;15207;42.182;24.308;2023-03-14T06:05:50;99553.84;;;3.32;63.86
27840;BME280;15207;42.182;24.308;2023-03-14T06:08:16;99556.69;;;3.67;61.80
27840;BME280;15207;42.182;24.308;2023-03-14T06:10:41;99555.31;;;3.78;61.71
27840;BME280;15207;42.182;24.308;2023-03-14T06:13:07;99560.25;;;3.86;60.67
27840;BME280;15207;42.182;24.308;2023-03-14T06:15:32;99553.06;;;4.07;60.47
27840;BME280;15207;42.182;24.308;2023-03-14T06:17:58;99553.00;;;4.08;59.93
27840;BME280;15207;42.182;24.308;2023-03-14T06:20:24;99552.03;;;4.29;58.42
27840;BME280;15207;42.182;24.308;2023-03-14T06:22:49;99555.72;;;4.07;60.27
27840;BME280;15207;42.182;24.308;2023-03-14T06:25:15;99547.22;;;4.37;58.90
27840;BME280;15207;42.182;24.308;2023-03-14T06:27:40;99553.63;;;4.14;57.26
27840;BME280;15207;42.182;24.308;2023-03-14T06:30:06;99544.38;;;4.22;58.26
27840;BME280;15207;42.182;24.308;2023-03-14T06:32:32;99537.41;;;4.57;56.36
27840;BME280;15207;42.182;24.308;2023-03-14T06:34:58;99541.44;;;4.64;54.67
27840;BME280;15207;42.182;24.308;2023-03-14T06:37:27;99532.16;;;4.90;55.17
27840;BME280;15207;42.182;24.308;2023-03-14T06:39:53;99540.13;;;5.08;53.09
27840;BME280;15207;42.182;24.308;2023-03-14T06:42:19;99542.28;;;5.18;53.64
27840;BME280;15207;42.182;24.308;2023-03-14T06:44:44;99534.47;;;4.97;53.42
27840;BME280;15207;42.182;24.308;2023-03-14T06:47:10;99531.06;;;4.95;54.04
27840;BME280;15207;42.182;24.308;2023-03-14T06:49:35;99526.84;;;5.08;53.67
27840;BME280;15207;42.182;24.308;2023-03-14T06:52:02;99522.94;;;4.98;53.34
27840;BME280;15207;42.182;24.308;2023-03-14T06:54:28;99518.00;;;5.08;54.04
27840;BME280;15207;42.182;24.308;2023-03-14T06:56:54;99520.94;;;5.19;54.28
27840;BME280;15207;42.182;24.308;2023-03-14T06:59:19;99523.47;;;5.38;51.38
27840;BME280;15207;42.182;24.308;2023-03-14T07:01:45;99520.66;;;5.58;50.82
27840;BME280;15207;42.182;24.308;2023-03-14T07:04:11;99521.63;;;5.73;50.28
27840;BME280;15207;42.182;24.308;2023-03-14T07:06:38;99516.13;;;5.76;50.37
27840;BME280;15207;42.182;24.308;2023-03-14T07:09:05;99524.22;;;6.22;50.04
27840;BME280;15207;42.182;24.308;2023-03-14T07:11:31;99516.59;;;6.47;48.07
27840;BME280;15207;42.182;24.308;2023-03-14T07:13:57;99514.16;;;6.58;47.37
27840;BME280;15207;42.182;24.308;2023-03-14T07:16:22;99505.50;;;6.55;47.94
27840;BME280;15207;42.182;24.308;2023-03-14T07:18:48;99508.59;;;6.78;48.40
27840;BME280;15207;42.182;24.308;2023-03-14T07:21:14;99503.50;;;6.89;48.29
27840;BME280;15207;42.182;24.308;2023-03-14T07:23:39;99505.75;;;6.81;48.50
27840;BME280;15207;42.182;24.308;2023-03-14T07:26:05;99503.88;;;6.97;47.75
27840;BME280;15207;42.182;24.308;2023-03-14T07:28:31;99507.59;;;7.24;47.19
27840;BME280;15207;42.182;24.308;2023-03-14T07:30:56;99510.00;;;7.43;47.10
27840;BME280;15207;42.182;24.308;2023-03-14T07:33:22;99501.66;;;7.62;47.53
27840;BME280;15207;42.182;24.308;2023-03-14T07:35:48;99501.66;;;7.77;47.69
27840;BME280;15207;42.182;24.308;2023-03-14T07:38:15;99501.81;;;8.16;46.33
27840;BME280;15207;42.182;24.308;2023-03-14T07:40:40;99490.03;;;8.05;45.51
27840;BME280;15207;42.182;24.308;2023-03-14T07:43:06;99489.03;;;7.93;45.36
27840;BME280;15207;42.182;24.308;2023-03-14T07:45:32;99485.03;;;8.01;45.98
27840;BME280;15207;42.182;24.308;2023-03-14T07:47:58;99483.78;;;8.19;45.58
27840;BME280;15207;42.182;24.308;2023-03-14T07:50:25;99480.41;;;8.30;45.34
27840;BME280;15207;42.182;24.308;2023-03-14T07:52:51;99476.53;;;8.22;45.34
27840;BME280;15207;42.182;24.308;2023-03-14T07:55:17;99471.28;;;8.47;45.05
27840;BME280;15207;42.182;24.308;2023-03-14T07:57:42;99472.50;;;8.69;44.49
27840;BME280;15207;42.182;24.308;2023-03-14T08:00:09;99470.59;;;8.71;43.68
27840;BME280;15207;42.182;24.308;2023-03-14T08:02:36;99464.91;;;8.76;43.53
27840;BME280;15207;42.182;24.308;2023-03-14T08:05:03;99466.44;;;8.80;42.47
27840;BME280;15207;42.182;24.308;2023-03-14T08:07:29;99462.59;;;8.84;42.92
27840;BME280;15207;42.182;24.308;2023-03-14T08:09:55;99463.97;;;8.90;41.91
27840;BME280;15207;42.182;24.308;2023-03-14T08:12:20;99458.59;;;9.16;41.72
27840;BME280;15207;42.182;24.308;2023-03-14T08:14:46;99457.91;;;9.38;40.95
27840;BME280;15207;42.182;24.308;2023-03-14T08:17:11;99462.47;;;8.99;41.02
27840;BME280;15207;42.182;24.308;2023-03-14T08:19:37;99460.06;;;9.33;41.18
27840;BME280;15207;42.182;24.308;2023-03-14T08:22:03;99456.97;;;9.39;40.36
27840;BME280;15207;42.182;24.308;2023-03-14T08:24:29;99463.53;;;9.60;40.50
27840;BME280;15207;42.182;24.308;2023-03-14T08:26:55;99454.50;;;9.74;40.00
27840;BME280;15207;42.182;24.308;2023-03-14T08:29:20;99446.25;;;10.01;39.68
27840;BME280;15207;42.182;24.308;2023-03-14T08:31:46;99437.03;;;10.05;39.94
27840;BME280;15207;42.182;24.308;2023-03-14T08:34:12;99430.84;;;10.05;39.63
27840;BME280;15207;42.182;24.308;2023-03-14T08:36:37;99436.38;;;9.90;39.78
27840;BME280;15207;42.182;24.308;2023-03-14T08:39:03;99433.72;;;9.90;39.30
27840;BME280;15207;42.182;24.308;2023-03-14T08:41:29;99426.81;;;9.75;39.51
27840;BME280;15207;42.182;24.308;2023-03-14T08:43:54;99423.66;;;10.05;38.92
27840;BME280;15207;42.182;24.308;2023-03-14T08:46:20;99414.84;;;10.16;38.73
27840;BME280;15207;42.182;24.308;2023-03-14T08:48:47;99412.63;;;10.46;37.69
27840;BME280;15207;42.182;24.308;2023-03-14T08:51:13;99405.63;;;10.32;35.96
27840;BME280;15207;42.182;24.308;2023-03-14T08:53:40;99397.94;;;10.52;37.64
27840;BME280;15207;42.182;24.308;2023-03-14T08:56:06;99399.31;;;11.03;37.90
27840;BME280;15207;42.182;24.308;2023-03-14T08:58:35;99387.66;;;11.48;36.54
27840;BME280;15207;42.182;24.308;2023-03-14T09:01:10;99383.34;;;11.02;37.34
27840;BME280;15207;42.182;24.308;2023-03-14T09:03:36;99391.53;;;10.77;37.46
27840;BME280;15207;42.182;24.308;2023-03-14T09:06:06;99381.47;;;10.45;37.75
27840;BME280;15207;42.182;24.308;2023-03-14T09:08:32;99380.66;;;10.67;37.53
27840;BME280;15207;42.182;24.308;2023-03-14T09:10:59;99373.19;;;10.37;37.60
27840;BME280;15207;42.182;24.308;2023-03-14T09:13:25;99365.06;;;10.73;37.30
27840;BME280;15207;42.182;24.308;2023-03-14T09:15:54;99373.34;;;11.04;37.15
27840;BME280;15207;42.182;24.308;2023-03-14T09:18:20;99369.97;;;11.02;36.66
27840;BME280;15207;42.182;24.308;2023-03-14T09:20:46;99373.25;;;10.94;36.92
27840;BME280;15207;42.182;24.308;2023-03-14T09:23:12;99365.69;;;10.76;37.32
27840;BME280;15207;42.182;24.308;2023-03-14T09:25:38;99360.56;;;10.50;37.92
27840;BME280;15207;42.182;24.308;2023-03-14T09:28:05;99357.53;;;10.89;37.77
27840;BME280;15207;42.182;24.308;2023-03-14T09:30:30;99351.78;;;11.28;37.57
27840;BME280;15207;42.182;24.308;2023-03-14T09:32:56;99356.66;;;11.23;37.39
27840;BME280;15207;42.182;24.308;2023-03-14T09:35:23;99355.34;;;10.94;38.42
27840;BME280;15207;42.182;24.308;2023-03-14T09:37:48;99348.63;;;11.11;37.89
27840;BME280;15207;42.182;24.308;2023-03-14T09:40:18;99338.19;;;11.53;37.25
27840;BME280;15207;42.182;24.308;2023-03-14T09:42:47;99338.91;;;11.55;36.14
27840;BME280;15207;42.182;24.308;2023-03-14T09:45:23;99327.31;;;11.54;37.77
27840;BME280;15207;42.182;24.308;2023-03-14T09:47:50;99327.84;;;11.36;37.88
27840;BME280;15207;42.182;24.308;2023-03-14T09:50:17;99325.34;;;11.12;38.07
27840;BME280;15207;42.182;24.308;2023-03-14T09:52:43;99322.91;;;11.20;37.83
27840;BME280;15207;42.182;24.308;2023-03-14T09:55:14;99310.38;;;11.54;37.93
27840;BME280;15207;42.182;24.308;2023-03-14T09:57:45;99299.16;;;11.81;37.21
27840;BME280;15207;42.182;24.308;2023-03-14T10:00:24;99302.97;;;12.00;37.47
27840;BME280;15207;42.182;24.308;2023-03-14T10:02:57;99304.69;;;12.22;35.70
27840;BME280;15207;42.182;24.308;2023-03-14T10:05:27;99292.22;;;11.78;35.91
27840;BME280;15207;42.182;24.308;2023-03-14T10:07:55;99293.59;;;12.06;36.45
27840;BME280;15207;42.182;24.308;2023-03-14T10:10:22;99285.88;;;11.80;36.18
27840;BME280;15207;42.182;24.308;2023-03-14T10:13:16;99285.00;;;11.58;36.25
27840;BME280;15207;42.182;24.308;2023-03-14T10:15:41;99272.47;;;12.01;36.39
27840;BME280;15207;42.182;24.308;2023-03-14T10:18:13;99266.97;;;12.55;34.85
27840;BME280;15207;42.182;24.308;2023-03-14T10:20:45;99261.41;;;12.37;34.83
27840;BME280;15207;42.182;24.308;2023-03-14T10:25:45;99255.75;;;12.40;34.67
27840;BME280;15207;42.182;24.308;2023-03-14T10:28:32;99251.88;;;12.23;34.93
27840;BME280;15207;42.182;24.308;2023-03-14T10:30:59;99245.47;;;12.45;35.26
27840;BME280;15207;42.182;24.308;2023-03-14T10:33:27;99236.66;;;12.33;34.57
27840;BME280;15207;42.182;24.308;2023-03-14T10:38:32;99230.31;;;12.44;33.69
27840;BME280;15207;42.182;24.308;2023-03-14T10:40:58;99221.69;;;12.09;34.37
27840;BME280;15207;42.182;24.308;2023-03-14T10:43:32;99217.41;;;11.64;35.18
27840;BME280;15207;42.182;24.308;2023-03-14T10:46:08;99205.91;;;11.73;35.15
27840;BME280;15207;42.182;24.308;2023-03-14T10:48:36;99201.53;;;12.15;34.64
27840;BME280;15207;42.182;24.308;2023-03-14T10:56:23;99181.09;;;12.94;33.85
27840;BME280;15207;42.182;24.308;2023-03-14T10:58:56;99170.88;;;12.78;33.93
27840;BME280;15207;42.182;24.308;2023-03-14T11:04:03;99154.59;;;12.70;34.12
27840;BME280;15207;42.182;24.308;2023-03-14T11:09:31;99137.13;;;12.86;33.29
27840;BME280;15207;42.182;24.308;2023-03-14T11:12:09;99128.13;;;12.04;34.10
27840;BME280;15207;42.182;24.308;2023-03-14T11:14:36;99120.16;;;12.24;34.57
27840;BME280;15207;42.182;24.308;2023-03-14T11:17:12;99109.09;;;12.08;34.42
27840;BME280;15207;42.182;24.308;2023-03-14T11:23:04;99093.09;;;12.47;34.57
27840;BME280;15207;42.182;24.308;2023-03-14T11:25:37;99091.41;;;12.56;34.25
27840;BME280;15207;42.182;24.308;2023-03-14T11:28:14;99073.81;;;12.32;35.11
27840;BME280;15207;42.182;24.308;2023-03-14T11:33:35;99054.09;;;12.53;34.42
27840;BME280;15207;42.182;24.308;2023-03-14T11:36:08;99048.72;;;12.53;34.59
27840;BME280;15207;42.182;24.308;2023-03-14T11:41:00;99037.78;;;12.25;35.30
27840;BME280;15207;42.182;24.308;2023-03-14T11:43:30;99030.72;;;12.34;35.60
27840;BME280;15207;42.182;24.308;2023-03-14T11:46:05;99024.38;;;12.35;35.40
27840;BME280;15207;42.182;24.308;2023-03-14T11:55:00;98997.53;;;12.64;34.61
27840;BME280;15207;42.182;24.308;2023-03-14T11:57:27;98991.84;;;12.87;34.60
27840;BME280;15207;42.182;24.308;2023-03-14T12:05:04;98982.25;;;13.22;34.44
27840;BME280;15207;42.182;24.308;2023-03-14T12:11:15;98970.91;;;12.81;35.13
27840;BME280;15207;42.182;24.308;2023-03-14T12:13:22;98952.06;;;13.11;34.59
27840;BME280;15207;42.182;24.308;2023-03-14T12:15:58;98946.69;;;13.01;34.89
27840;BME280;15207;42.182;24.308;2023-03-14T12:18:31;98955.66;;;12.81;34.89
27840;BME280;15207;42.182;24.308;2023-03-14T12:21:03;98943.41;;;13.07;35.02
27840;BME280;15207;42.182;24.308;2023-03-14T12:23:56;98946.69;;;13.01;35.63
27840;BME280;15207;42.182;24.308;2023-03-14T12:26:27;98946.41;;;13.04;35.50
27840;BME280;15207;42.182;24.308;2023-03-14T12:29:16;98948.41;;;12.82;35.89
27840;BME280;15207;42.182;24.308;2023-03-14T12:31:46;98934.25;;;13.00;35.11
27840;BME280;15207;42.182;24.308;2023-03-14T12:39:37;98914.50;;;13.57;34.78
27840;BME280;15207;42.182;24.308;2023-03-14T12:47:51;98906.75;;;13.44;33.99
27840;BME280;15207;42.182;24.308;2023-03-14T12:50:26;98906.28;;;13.20;34.57
27840;BME280;15207;42.182;24.308;2023-03-14T12:55:46;98899.78;;;13.23;34.18
27840;BME280;15207;42.182;24.308;2023-03-14T12:58:44;98888.41;;;13.29;34.55
27840;BME280;15207;42.182;24.308;2023-03-14T13:01:18;98896.03;;;13.06;34.25
27840;BME280;15207;42.182;24.308;2023-03-14T13:03:50;98885.69;;;13.11;34.84
27840;BME280;15207;42.182;24.308;2023-03-14T13:07:01;98887.94;;;13.16;34.06
27840;BME280;15207;42.182;24.308;2023-03-14T13:11:51;98883.25;;;13.18;35.10
27840;BME280;15207;42.182;24.308;2023-03-14T13:14:18;98876.50;;;13.32;34.99
27840;BME280;15207;42.182;24.308;2023-03-14T13:16:46;98860.34;;;13.42;35.18
27840;BME280;15207;42.182;24.308;2023-03-14T13:19:26;98866.81;;;13.49;34.90
27840;BME280;15207;42.182;24.308;2023-03-14T13:22:05;98860.06;;;13.17;35.00
27840;BME280;15207;42.182;24.308;2023-03-14T13:24:34;98848.34;;;13.36;34.15
27840;BME280;15207;42.182;24.308;2023-03-14T13:27:00;98842.09;;;13.64;34.53
27840;BME280;15207;42.182;24.308;2023-03-14T13:29:29;98831.66;;;13.60;34.43
27840;BME280;15207;42.182;24.308;2023-03-14T13:32:01;98828.97;;;13.79;34.48
27840;BME280;15207;42.182;24.308;2023-03-14T13:34:32;98825.13;;;13.81;34.88
27840;BME280;15207;42.182;24.308;2023-03-14T13:36:59;98819.13;;;13.87;34.78
27840;BME280;15207;42.182;24.308;2023-03-14T13:39:25;98821.97;;;13.68;34.77
27840;BME280;15207;42.182;24.308;2023-03-14T13:41:58;98817.59;;;13.48;35.54
27840;BME280;15207;42.182;24.308;2023-03-14T13:44:38;98812.06;;;13.40;35.84
27840;BME280;15207;42.182;24.308;2023-03-14T13:47:10;98795.78;;;13.42;35.49
27840;BME280;15207;42.182;24.308;2023-03-14T13:49:37;98790.72;;;13.39;35.66
27840;BME280;15207;42.182;24.308;2023-03-14T13:52:04;98794.50;;;13.46;35.31
27840;BME280;15207;42.182;24.308;2023-03-14T13:54:46;98789.19;;;13.72;34.64
27840;BME280;15207;42.182;24.308;2023-03-14T13:57:12;98780.69;;;13.77;34.32
27840;BME280;15207;42.182;24.308;2023-03-14T13:59:37;98779.06;;;13.84;34.44
27840;BME280;15207;42.182;24.308;2023-03-14T14:02:22;98777.06;;;13.86;34.37